createdAt,value
2023-05-03T00:03:32.929Z,58.19
2023-05-03T00:07:33.151Z,58.63
2023-05-03T00:11:37.249Z,58.08
2023-05-03T00:15:37.402Z,58.31
2023-05-03T00:19:38.300Z,58.70
2023-05-03T00:23:38.513Z,58.43
2023-05-03T00:27:41.401Z,58.52
2023-05-03T00:31:41.628Z,58.94
2023-05-03T00:35:41.967Z,58.18
2023-05-03T00:39:42.250Z,58.10
2023-05-03T00:43:45.000Z,58.19
2023-05-03T00:47:45.386Z,58.43
2023-05-03T00:51:45.956Z,58.11
2023-05-03T00:55:48.438Z,58.48
2023-05-03T00:59:52.978Z,58.70
2023-05-03T01:03:53.294Z,59.16
2023-05-03T01:08:10.516Z,59.02
2023-05-03T01:12:26.878Z,59.10
2023-05-03T01:16:40.889Z,59.03
2023-05-03T01:20:45.114Z,59.15
2023-05-03T01:24:54.019Z,58.33
2023-05-03T01:28:58.637Z,58.37
2023-05-03T01:33:08.607Z,58.53
2023-05-03T01:37:14.023Z,59.61
2023-05-03T01:41:17.423Z,59.57
2023-05-03T01:45:21.243Z,58.52
2023-05-03T01:49:22.381Z,58.28
2023-05-03T01:53:23.160Z,59.06
2023-05-03T01:57:23.405Z,58.19
2023-05-03T02:01:26.349Z,57.96
2023-05-03T02:05:26.537Z,58.26
2023-05-03T02:09:28.446Z,58.55
2023-05-03T02:13:28.749Z,58.81
2023-05-03T02:17:31.673Z,58.99
2023-05-03T02:21:31.942Z,59.37
2023-05-03T02:25:32.457Z,58.66
2023-05-03T02:29:32.702Z,58.75
2023-05-03T02:33:37.574Z,59.10
2023-05-03T02:37:37.822Z,59.37
2023-05-03T02:41:42.873Z,59.11
2023-05-03T02:45:43.177Z,58.97
2023-05-03T02:49:48.383Z,58.99
2023-05-03T02:53:49.435Z,58.55
2023-05-03T02:57:49.659Z,59.20
2023-05-03T03:01:53.173Z,59.24
2023-05-03T03:05:59.071Z,59.36
2023-05-03T03:09:59.351Z,59.64
2023-05-03T03:13:59.811Z,59.61
2023-05-03T03:18:01.180Z,59.65
2023-05-03T03:22:04.413Z,60.09
2023-05-03T03:26:05.316Z,59.85
2023-05-03T03:30:08.285Z,60.08
2023-05-03T03:34:15.179Z,60.17
2023-05-03T03:38:18.272Z,59.66
2023-05-03T03:42:29.469Z,59.68
2023-05-03T03:46:31.352Z,59.88
2023-05-03T03:50:32.852Z,59.29
2023-05-03T03:54:36.124Z,59.62
2023-05-03T03:58:37.081Z,59.03
2023-05-03T04:02:41.331Z,58.92
2023-05-03T04:06:49.486Z,59.03
2023-05-03T04:10:53.372Z,59.16
2023-05-03T04:14:55.177Z,59.28
2023-05-03T04:18:55.575Z,59.34
2023-05-03T04:22:55.974Z,59.42
2023-05-03T04:27:04.675Z,59.63
2023-05-03T04:31:07.796Z,60.89
2023-05-03T04:35:13.079Z,59.42
2023-05-03T04:39:17.907Z,59.07
2023-05-03T04:43:23.450Z,58.76
2023-05-03T04:47:25.485Z,57.96
2023-05-03T04:51:28.466Z,58.05
2023-05-03T04:55:29.648Z,57.38
2023-05-03T04:59:34.840Z,57.98
2023-05-03T05:03:35.566Z,58.07
2023-05-03T05:07:41.019Z,58.34
2023-05-03T05:11:43.152Z,58.86
2023-05-03T05:15:46.542Z,59.56
2023-05-03T05:19:47.500Z,58.89
2023-05-03T05:23:49.115Z,58.67
2023-05-03T05:27:49.969Z,56.76
2023-05-03T05:31:53.284Z,54.08
2023-05-03T05:35:54.609Z,54.29
2023-05-03T05:39:56.408Z,54.10
2023-05-03T05:44:00.960Z,53.46
2023-05-03T05:48:06.159Z,50.87
2023-05-03T05:52:08.239Z,51.76
2023-05-03T05:56:09.080Z,51.31
2023-05-03T06:00:14.986Z,50.32
2023-05-03T06:04:19.633Z,49.53
2023-05-03T06:08:20.523Z,49.01
2023-05-03T06:12:21.074Z,47.58
2023-05-03T06:16:22.393Z,47.70
2023-05-03T06:20:26.531Z,47.56
2023-05-03T06:24:31.433Z,46.26
2023-05-03T06:28:31.607Z,45.79
2023-05-03T06:32:31.922Z,44.72
2023-05-03T06:36:35.741Z,43.30
2023-05-03T06:40:38.541Z,42.78
2023-05-03T06:44:38.894Z,44.10
2023-05-03T06:48:39.652Z,44.76
2023-05-03T06:52:42.774Z,44.60
2023-05-03T06:56:43.101Z,45.14
2023-05-03T07:00:43.438Z,45.16
2023-05-03T07:04:43.720Z,45.56
2023-05-03T07:08:47.164Z,46.02
2023-05-03T07:12:47.411Z,46.57
2023-05-03T07:16:47.694Z,46.08
2023-05-03T07:20:49.042Z,47.01
2023-05-03T07:24:51.934Z,47.39
2023-05-03T07:28:52.303Z,46.68
2023-05-03T07:32:52.845Z,46.78
2023-05-03T07:36:53.113Z,46.60
2023-05-03T07:40:56.069Z,46.62
2023-05-03T07:44:56.434Z,45.11
2023-05-03T07:48:56.549Z,44.75
2023-05-03T07:52:56.951Z,44.83
2023-05-03T07:56:59.800Z,43.14
2023-05-03T08:01:00.173Z,41.16
2023-05-03T08:05:00.844Z,40.15
2023-05-03T08:09:01.439Z,38.03
2023-05-03T08:13:04.173Z,36.38
2023-05-03T08:17:04.922Z,36.52
2023-05-03T08:21:05.079Z,35.08
2023-05-03T08:25:05.225Z,34.93
2023-05-03T08:29:08.497Z,33.13
2023-05-03T08:33:10.106Z,32.34
2023-05-03T08:37:10.494Z,31.33
2023-05-03T08:41:26.148Z,33.50
2023-05-03T08:45:29.341Z,32.79
2023-05-03T08:49:30.914Z,31.37
2023-05-03T08:53:32.760Z,31.60
2023-05-03T08:57:34.684Z,29.33
2023-05-03T09:01:40.259Z,29.14
2023-05-03T09:05:44.432Z,27.73
2023-05-03T09:09:47.058Z,27.67
2023-05-03T09:13:47.817Z,28.04
2023-05-03T09:18:13.577Z,28.84
2023-05-03T09:22:14.455Z,30.26
2023-05-03T09:26:30.533Z,32.76
2023-05-03T09:30:30.972Z,33.15
2023-05-03T09:34:34.961Z,33.61
2023-05-03T09:38:37.985Z,34.36
2023-05-03T09:42:39.176Z,33.63
2023-05-03T09:46:40.216Z,31.25
2023-05-03T09:50:45.785Z,30.45
2023-05-03T09:54:47.389Z,31.43
2023-05-03T09:58:47.961Z,29.14
2023-05-03T10:02:51.525Z,26.39
2023-05-03T10:07:01.080Z,25.56
2023-05-03T10:11:01.701Z,26.54
2023-05-03T10:15:07.427Z,27.41
2023-05-03T10:19:16.333Z,27.94
2023-05-03T10:23:20.978Z,28.26
2023-05-03T10:27:21.168Z,27.46
2023-05-03T10:31:50.501Z,25.44
2023-05-03T10:35:55.542Z,24.41
2023-05-03T10:39:59.631Z,26.50
2023-05-03T10:43:59.897Z,26.56
2023-05-03T10:48:23.457Z,24.76
2023-05-03T10:52:51.837Z,22.35
2023-05-03T10:56:59.925Z,21.44
2023-05-03T11:01:01.337Z,21.19
2023-05-03T11:05:09.380Z,20.76
2023-05-03T11:09:15.071Z,18.24
2023-05-03T11:13:18.481Z,18.17
2023-05-03T11:17:19.115Z,17.20
2023-05-03T11:21:21.432Z,17.95
2023-05-03T11:25:21.797Z,18.32
2023-05-03T11:29:27.475Z,17.27
2023-05-03T11:33:29.596Z,17.31
2023-05-03T11:37:30.502Z,18.00
2023-05-03T11:41:30.740Z,17.13
2023-05-03T11:45:44.409Z,16.63
2023-05-03T11:49:54.766Z,17.17
2023-05-03T11:53:55.222Z,18.77
2023-05-03T11:57:55.507Z,21.30
2023-05-03T12:01:59.815Z,21.70
2023-05-03T12:06:01.785Z,20.15
2023-05-03T12:14:06.939Z,18.57
2023-05-03T12:18:12.761Z,17.63
2023-05-03T12:22:26.355Z,16.89
2023-05-03T12:26:27.620Z,16.73
2023-05-03T12:30:29.038Z,17.19
2023-05-03T12:34:35.426Z,16.83
2023-05-03T12:38:37.794Z,15.57
2023-05-03T12:42:40.043Z,15.87
2023-05-03T12:46:45.241Z,15.90
2023-05-03T12:50:51.898Z,15.89
2023-05-03T12:54:55.680Z,15.35
2023-05-03T13:07:12.530Z,15.56
2023-05-03T13:11:14.093Z,15.09
2023-05-03T13:15:14.823Z,14.51
2023-05-03T13:19:15.329Z,16.49
2023-05-03T13:23:18.398Z,15.93
2023-05-03T13:27:19.933Z,16.53
2023-05-03T13:31:21.015Z,16.94
2023-05-03T13:35:21.583Z,16.57
2023-05-03T13:39:24.475Z,16.38
2023-05-03T13:43:24.848Z,16.88
2023-05-03T13:47:26.987Z,17.90
2023-05-03T13:51:29.691Z,17.62
2023-05-03T13:55:32.755Z,17.44
2023-05-03T13:59:33.037Z,17.65
2023-05-03T14:03:34.970Z,17.25
2023-05-03T14:07:36.517Z,16.83
2023-05-03T14:11:39.885Z,17.64
2023-05-03T14:15:43.606Z,19.17
2023-05-03T14:19:43.877Z,19.76
2023-05-03T14:23:45.147Z,19.03
2023-05-03T14:27:48.101Z,18.15
2023-05-03T14:31:48.524Z,17.95
2023-05-03T14:35:48.891Z,17.52
2023-05-03T14:39:49.106Z,16.83
2023-05-03T14:43:51.879Z,16.43
2023-05-03T14:47:52.404Z,16.49
2023-05-03T14:51:52.667Z,16.20
2023-05-03T14:55:54.651Z,16.38
2023-05-03T14:59:57.680Z,16.60
2023-05-03T15:03:58.032Z,16.67
2023-05-03T15:07:59.093Z,16.54
2023-05-03T15:11:59.751Z,16.77
2023-05-03T15:16:02.524Z,16.50
2023-05-03T15:20:03.100Z,16.17
2023-05-03T15:24:04.368Z,16.68
2023-05-03T15:28:04.895Z,16.28
2023-05-03T15:32:08.740Z,16.20
2023-05-03T15:36:12.293Z,17.10
2023-05-03T15:40:14.755Z,16.82
2023-05-03T15:44:16.371Z,16.01
2023-05-03T15:48:19.286Z,16.83
2023-05-03T15:52:19.469Z,16.81
2023-05-03T15:56:21.011Z,17.30
2023-05-03T16:00:23.149Z,16.72
2023-05-03T16:04:26.102Z,17.11
2023-05-03T16:08:26.534Z,17.50
2023-05-03T16:12:27.517Z,18.44
2023-05-03T16:16:28.435Z,19.12
2023-05-03T16:20:31.478Z,18.71
2023-05-03T16:24:31.639Z,18.33
2023-05-03T16:28:31.888Z,18.39
2023-05-03T16:32:32.190Z,19.01
2023-05-03T16:36:42.590Z,19.82
2023-05-03T16:40:43.455Z,20.54
2023-05-03T16:44:43.680Z,20.47
2023-05-03T16:48:43.871Z,20.18
2023-05-03T16:52:47.614Z,21.13
2023-05-03T16:56:48.197Z,21.13
2023-05-03T17:00:48.763Z,20.52
2023-05-03T17:04:49.141Z,20.53
2023-05-03T17:08:52.145Z,20.45
2023-05-03T17:12:52.892Z,20.92
2023-05-03T17:16:53.541Z,21.04
2023-05-03T17:20:53.789Z,21.03
2023-05-03T17:24:57.485Z,21.74
2023-05-03T17:28:57.685Z,22.06
2023-05-03T17:32:57.896Z,21.66
2023-05-03T17:36:59.365Z,22.28
2023-05-03T17:41:07.864Z,22.72
2023-05-03T17:45:10.253Z,22.49
2023-05-03T17:49:10.587Z,22.61
2023-05-03T17:53:11.958Z,23.62
2023-05-03T17:57:15.045Z,23.93
2023-05-03T18:01:16.017Z,25.04
2023-05-03T18:05:17.706Z,25.78
2023-05-03T18:09:18.589Z,26.25
2023-05-03T18:13:21.636Z,27.17
2023-05-03T18:17:22.746Z,28.03
2023-05-03T18:21:23.662Z,28.45
2023-05-03T18:25:24.112Z,30.26
2023-05-03T18:29:26.986Z,31.84
2023-05-03T18:33:27.547Z,32.49
2023-05-03T18:37:27.921Z,33.17
2023-05-03T18:41:28.113Z,33.85
2023-05-03T18:45:31.329Z,34.92
2023-05-03T18:49:31.502Z,35.33
2023-05-03T18:53:32.190Z,35.71
2023-05-03T18:57:32.477Z,36.33
2023-05-03T19:01:35.369Z,36.76
2023-05-03T19:05:36.493Z,36.68
2023-05-03T19:09:36.820Z,37.44
2023-05-03T19:13:37.054Z,38.43
2023-05-03T19:17:40.575Z,37.63
2023-05-03T19:21:42.635Z,38.04
2023-05-03T19:25:42.945Z,38.01
2023-05-03T19:29:43.220Z,38.35
2023-05-03T19:33:46.598Z,39.48
2023-05-03T19:37:46.829Z,39.46
2023-05-03T19:41:47.451Z,39.66
2023-05-03T19:45:47.821Z,39.46
2023-05-03T19:49:50.749Z,40.27
2023-05-03T19:53:51.163Z,40.53
2023-05-03T19:57:51.412Z,40.92
2023-05-03T20:01:51.898Z,41.41
2023-05-03T20:05:54.846Z,41.36
2023-05-03T20:09:55.221Z,41.11
2023-05-03T20:13:55.500Z,41.89
2023-05-03T20:17:56.981Z,42.24
2023-05-03T20:21:59.803Z,42.54
2023-05-03T20:26:01.742Z,42.41
2023-05-03T20:30:04.759Z,42.51
2023-05-03T20:34:05.340Z,42.45
2023-05-03T20:38:08.398Z,42.34
2023-05-03T20:42:08.865Z,43.97
2023-05-03T20:46:09.252Z,44.00
2023-05-03T20:50:11.943Z,43.59
2023-05-03T20:54:14.742Z,43.76
2023-05-03T20:58:16.260Z,43.92
2023-05-03T21:02:16.559Z,44.24
2023-05-03T21:06:16.826Z,44.60
2023-05-03T21:10:19.683Z,45.30
2023-05-03T21:14:20.076Z,45.87
2023-05-03T21:18:21.703Z,45.68
2023-05-03T21:22:22.877Z,45.68
2023-05-03T21:26:26.339Z,46.13
2023-05-03T21:30:26.587Z,46.14
2023-05-03T21:34:26.941Z,46.33
2023-05-03T21:38:27.302Z,47.35
2023-05-03T21:42:30.397Z,47.75
2023-05-03T21:46:30.682Z,48.46
2023-05-03T21:50:31.197Z,48.41
2023-05-03T21:54:31.845Z,48.62
2023-05-03T21:58:34.922Z,48.51
2023-05-03T22:02:35.225Z,48.31
2023-05-03T22:06:35.737Z,48.65
2023-05-03T22:10:36.672Z,49.10
2023-05-03T22:14:39.478Z,48.68
2023-05-03T22:18:42.432Z,49.21
2023-05-03T22:22:42.900Z,49.23
2023-05-03T22:26:43.083Z,49.60
2023-05-03T22:30:45.811Z,49.59
2023-05-03T22:34:46.787Z,49.38
2023-05-03T22:38:48.083Z,50.36
2023-05-03T22:42:48.483Z,49.96
2023-05-03T22:46:51.186Z,49.93
2023-05-03T22:50:51.848Z,50.10
2023-05-03T22:54:52.064Z,50.29
2023-05-03T22:58:52.296Z,50.84
2023-05-03T23:02:55.149Z,51.78
2023-05-03T23:06:56.718Z,51.30
2023-05-03T23:10:59.505Z,51.77
2023-05-03T23:14:59.881Z,52.02
2023-05-03T23:19:02.654Z,52.33
2023-05-03T23:23:02.867Z,52.99
2023-05-03T23:27:03.595Z,52.53
2023-05-03T23:31:04.613Z,52.32
2023-05-03T23:35:09.590Z,53.06
2023-05-03T23:39:09.963Z,52.62
2023-05-03T23:43:10.391Z,52.80
2023-05-03T23:47:10.769Z,52.76
2023-05-03T23:51:13.548Z,52.57
2023-05-03T23:55:14.908Z,53.06
2023-05-03T23:59:15.231Z,52.55
